METAR AND TAF INFORMATION
METAR FOR EGNR
ADDS - METARS form results

(2036 UTC 12 August 2020)
Data provider http://aviationweather.gov/metar/data/
 
Forecast for: AMD
Text: TAF AMD EGNR 121758Z 1217/1219 01009KT 9999 FEW045
Forecast period: 1700 to 1900 UTC 12 August 2020
Forecast type: FROM: standard forecast or significant change
Winds: from the N (10 degrees) at 10 MPH (9 knots; 4.6 m/s)
Visibility: 6 or more miles (10+ km)
Ceiling: at least 12,000 feet AGL
Clouds: few clouds at 4500 feet AGL
Weather: no significant weather forecast for this period
Text: PROB40
Forecast period: 1700 to 1900 UTC 12 August 2020
Forecast type: TEMPORARY: The following changes expected for less than half the time period
Winds: variable direction winds at 23 MPH (20 knots; 10.3 m/s)
gusting to 34 MPH (30 knots; 15.4 m/s)
Visibility: 1.24 miles (2.00 km)
Ceiling: unknown
Clouds: missing
Weather: +TSRA +TSGR  (heavy rain associated with thunderstorm(s), unknown weather)

 AIRPORT MAP

 RUNWAY INFORMATION
Runway 05 Runway length 6702 ft Runway width 148 ft
Runway elevation 31 ft Runway displaced threshold 984 ft Runway heading 41
Runway 23 Runway length 6702 ft Runway width 148 ft
Runway elevation 17 ft Runway displaced threshold 984 ft Runway heading 221

 AIRPORT FREQUENCIES
Type APP Name APP Frequency 123.35 MHZ
Type TWR Name TWR Frequency 124.95 MHZ

 AIRPORT NEAR NAVIGATION AIDS



Powered by Virtual Airlines Manager [v2.6.2]